sensor_id;sensor_type;location;lat;lon;timestamp;P1;durP1;ratioP1;P2;durP2;ratioP2
14373;SDS011;7270;49.004;12.066;2023-05-10T00:01:19;1.40;;;1.30;;
14373;SDS011;7270;49.004;12.066;2023-05-10T00:03:47;1.40;;;1.30;;
14373;SDS011;7270;49.004;12.066;2023-05-10T00:06:13;1.20;;;1.20;;
14373;SDS011;7270;49.004;12.066;2023-05-10T00:08:43;1.40;;;1.30;;
14373;SDS011;7270;49.004;12.066;2023-05-10T00:11:09;1.30;;;1.20;;
14373;SDS011;7270;49.004;12.066;2023-05-10T00:13:35;1.20;;;1.20;;
14373;SDS011;7270;49.004;12.066;2023-05-10T00:16:02;1.40;;;1.30;;
14373;SDS011;7270;49.004;12.066;2023-05-10T00:18:28;1.40;;;1.30;;
14373;SDS011;7270;49.004;12.066;2023-05-10T00:20:55;1.17;;;1.17;;
14373;SDS011;7270;49.004;12.066;2023-05-10T00:23:22;1.40;;;1.30;;
14373;SDS011;7270;49.004;12.066;2023-05-10T00:25:48;1.40;;;1.30;;
14373;SDS011;7270;49.004;12.066;2023-05-10T00:28:14;1.30;;;1.20;;
14373;SDS011;7270;49.004;12.066;2023-05-10T00:30:41;1.40;;;1.30;;
14373;SDS011;7270;49.004;12.066;2023-05-10T00:33:07;1.40;;;1.30;;
14373;SDS011;7270;49.004;12.066;2023-05-10T00:35:33;1.30;;;1.20;;
14373;SDS011;7270;49.004;12.066;2023-05-10T00:38:01;1.40;;;1.30;;
14373;SDS011;7270;49.004;12.066;2023-05-10T00:40:27;1.20;;;1.20;;
14373;SDS011;7270;49.004;12.066;2023-05-10T00:42:55;1.40;;;1.30;;
14373;SDS011;7270;49.004;12.066;2023-05-10T00:45:21;1.17;;;1.17;;
14373;SDS011;7270;49.004;12.066;2023-05-10T00:47:48;1.40;;;1.30;;
14373;SDS011;7270;49.004;12.066;2023-05-10T00:50:14;1.30;;;1.20;;
14373;SDS011;7270;49.004;12.066;2023-05-10T00:52:41;1.20;;;1.20;;
14373;SDS011;7270;49.004;12.066;2023-05-10T00:55:10;1.30;;;1.20;;
14373;SDS011;7270;49.004;12.066;2023-05-10T00:57:37;1.40;;;1.30;;
14373;SDS011;7270;49.004;12.066;2023-05-10T01:00:04;1.10;;;1.10;;
14373;SDS011;7270;49.004;12.066;2023-05-10T01:02:31;1.40;;;1.30;;
14373;SDS011;7270;49.004;12.066;2023-05-10T01:04:59;1.40;;;1.30;;
14373;SDS011;7270;49.004;12.066;2023-05-10T01:07:26;1.33;;;1.23;;
14373;SDS011;7270;49.004;12.066;2023-05-10T01:09:52;1.30;;;1.20;;
14373;SDS011;7270;49.004;12.066;2023-05-10T01:12:20;1.20;;;1.20;;
14373;SDS011;7270;49.004;12.066;2023-05-10T01:14:46;1.33;;;1.23;;
14373;SDS011;7270;49.004;12.066;2023-05-10T01:17:13;1.10;;;1.10;;
14373;SDS011;7270;49.004;12.066;2023-05-10T01:19:39;1.30;;;1.20;;
14373;SDS011;7270;49.004;12.066;2023-05-10T01:22:09;1.10;;;1.10;;
14373;SDS011;7270;49.004;12.066;2023-05-10T01:24:46;1.30;;;1.20;;
14373;SDS011;7270;49.004;12.066;2023-05-10T01:27:25;1.40;;;1.30;;
14373;SDS011;7270;49.004;12.066;2023-05-10T01:32:45;1.37;;;1.27;;
14373;SDS011;7270;49.004;12.066;2023-05-10T01:35:14;1.40;;;1.30;;
14373;SDS011;7270;49.004;12.066;2023-05-10T01:37:44;1.37;;;1.27;;
14373;SDS011;7270;49.004;12.066;2023-05-10T01:40:14;1.40;;;1.30;;
14373;SDS011;7270;49.004;12.066;2023-05-10T01:42:46;1.20;;;1.20;;
14373;SDS011;7270;49.004;12.066;2023-05-10T01:45:18;1.30;;;1.20;;
14373;SDS011;7270;49.004;12.066;2023-05-10T01:47:48;1.20;;;1.20;;
14373;SDS011;7270;49.004;12.066;2023-05-10T01:50:17;1.20;;;1.20;;
14373;SDS011;7270;49.004;12.066;2023-05-10T01:52:51;1.10;;;1.10;;
14373;SDS011;7270;49.004;12.066;2023-05-10T01:55:20;1.13;;;1.13;;
14373;SDS011;7270;49.004;12.066;2023-05-10T01:57:47;1.30;;;1.20;;
14373;SDS011;7270;49.004;12.066;2023-05-10T02:00:17;1.40;;;1.30;;
14373;SDS011;7270;49.004;12.066;2023-05-10T02:02:45;1.10;;;1.10;;
14373;SDS011;7270;49.004;12.066;2023-05-10T02:05:13;1.33;;;1.23;;
14373;SDS011;7270;49.004;12.066;2023-05-10T02:07:40;1.40;;;1.30;;
14373;SDS011;7270;49.004;12.066;2023-05-10T02:10:07;1.30;;;1.20;;
14373;SDS011;7270;49.004;12.066;2023-05-10T02:12:35;1.20;;;1.20;;
14373;SDS011;7270;49.004;12.066;2023-05-10T02:15:02;1.40;;;1.30;;
14373;SDS011;7270;49.004;12.066;2023-05-10T02:17:30;1.40;;;1.30;;
14373;SDS011;7270;49.004;12.066;2023-05-10T02:19:57;1.17;;;1.17;;
14373;SDS011;7270;49.004;12.066;2023-05-10T02:22:26;1.10;;;1.10;;
14373;SDS011;7270;49.004;12.066;2023-05-10T02:24:53;1.20;;;1.20;;
14373;SDS011;7270;49.004;12.066;2023-05-10T02:27:20;1.20;;;1.20;;
14373;SDS011;7270;49.004;12.066;2023-05-10T02:29:46;1.20;;;1.20;;
14373;SDS011;7270;49.004;12.066;2023-05-10T02:32:13;1.40;;;1.30;;
14373;SDS011;7270;49.004;12.066;2023-05-10T02:34:40;1.30;;;1.20;;
14373;SDS011;7270;49.004;12.066;2023-05-10T02:37:07;1.20;;;1.20;;
14373;SDS011;7270;49.004;12.066;2023-05-10T02:39:35;1.10;;;1.10;;
14373;SDS011;7270;49.004;12.066;2023-05-10T02:42:01;1.20;;;1.20;;
14373;SDS011;7270;49.004;12.066;2023-05-10T02:44:27;1.20;;;1.20;;
14373;SDS011;7270;49.004;12.066;2023-05-10T02:46:56;1.13;;;1.13;;
14373;SDS011;7270;49.004;12.066;2023-05-10T02:49:22;1.30;;;1.20;;
14373;SDS011;7270;49.004;12.066;2023-05-10T02:51:50;1.17;;;1.17;;
14373;SDS011;7270;49.004;12.066;2023-05-10T02:54:18;1.30;;;1.20;;
14373;SDS011;7270;49.004;12.066;2023-05-10T02:56:51;1.30;;;1.20;;
14373;SDS011;7270;49.004;12.066;2023-05-10T02:59:18;1.33;;;1.27;;
14373;SDS011;7270;49.004;12.066;2023-05-10T03:01:45;1.03;;;1.03;;
14373;SDS011;7270;49.004;12.066;2023-05-10T03:04:11;1.30;;;1.20;;
14373;SDS011;7270;49.004;12.066;2023-05-10T03:06:38;1.20;;;1.20;;
14373;SDS011;7270;49.004;12.066;2023-05-10T03:09:04;1.30;;;1.20;;
14373;SDS011;7270;49.004;12.066;2023-05-10T03:11:36;1.20;;;1.20;;
14373;SDS011;7270;49.004;12.066;2023-05-10T03:14:10;1.20;;;1.20;;
14373;SDS011;7270;49.004;12.066;2023-05-10T03:16:41;1.40;;;1.30;;
14373;SDS011;7270;49.004;12.066;2023-05-10T03:19:11;1.10;;;1.10;;
14373;SDS011;7270;49.004;12.066;2023-05-10T03:21:38;1.20;;;1.20;;
14373;SDS011;7270;49.004;12.066;2023-05-10T03:24:07;1.40;;;1.30;;
14373;SDS011;7270;49.004;12.066;2023-05-10T03:26:36;1.10;;;1.10;;
14373;SDS011;7270;49.004;12.066;2023-05-10T03:29:03;1.37;;;1.27;;
14373;SDS011;7270;49.004;12.066;2023-05-10T03:31:31;1.27;;;1.20;;
14373;SDS011;7270;49.004;12.066;2023-05-10T03:33:58;1.20;;;1.20;;
14373;SDS011;7270;49.004;12.066;2023-05-10T03:36:24;1.40;;;1.30;;
14373;SDS011;7270;49.004;12.066;2023-05-10T03:38:51;1.10;;;1.10;;
14373;SDS011;7270;49.004;12.066;2023-05-10T03:41:17;1.30;;;1.20;;
14373;SDS011;7270;49.004;12.066;2023-05-10T03:43:44;1.30;;;1.20;;
14373;SDS011;7270;49.004;12.066;2023-05-10T03:46:10;1.50;;;1.40;;
14373;SDS011;7270;49.004;12.066;2023-05-10T03:48:38;1.20;;;1.20;;
14373;SDS011;7270;49.004;12.066;2023-05-10T03:51:04;1.20;;;1.20;;
14373;SDS011;7270;49.004;12.066;2023-05-10T03:53:31;1.20;;;1.20;;
14373;SDS011;7270;49.004;12.066;2023-05-10T03:55:57;1.40;;;1.30;;
14373;SDS011;7270;49.004;12.066;2023-05-10T03:58:23;1.13;;;1.13;;
14373;SDS011;7270;49.004;12.066;2023-05-10T04:00:50;1.20;;;1.20;;
14373;SDS011;7270;49.004;12.066;2023-05-10T04:03:17;1.20;;;1.20;;
14373;SDS011;7270;49.004;12.066;2023-05-10T04:05:44;1.20;;;1.20;;
14373;SDS011;7270;49.004;12.066;2023-05-10T04:08:11;1.30;;;1.20;;
14373;SDS011;7270;49.004;12.066;2023-05-10T04:10:37;1.20;;;1.20;;
14373;SDS011;7270;49.004;12.066;2023-05-10T04:13:03;1.10;;;1.10;;
14373;SDS011;7270;49.004;12.066;2023-05-10T04:15:30;1.20;;;1.20;;
14373;SDS011;7270;49.004;12.066;2023-05-10T04:17:56;1.10;;;1.10;;
14373;SDS011;7270;49.004;12.066;2023-05-10T04:20:22;1.10;;;1.10;;
14373;SDS011;7270;49.004;12.066;2023-05-10T04:22:50;1.10;;;1.10;;
14373;SDS011;7270;49.004;12.066;2023-05-10T04:25:16;1.10;;;1.10;;
14373;SDS011;7270;49.004;12.066;2023-05-10T04:27:42;1.30;;;1.20;;
14373;SDS011;7270;49.004;12.066;2023-05-10T04:30:09;1.17;;;1.17;;
14373;SDS011;7270;49.004;12.066;2023-05-10T04:32:35;1.20;;;1.20;;
14373;SDS011;7270;49.004;12.066;2023-05-10T04:35:01;1.10;;;1.10;;
14373;SDS011;7270;49.004;12.066;2023-05-10T04:37:29;1.00;;;1.00;;
14373;SDS011;7270;49.004;12.066;2023-05-10T04:39:57;1.10;;;1.10;;
14373;SDS011;7270;49.004;12.066;2023-05-10T04:42:24;1.20;;;1.20;;
14373;SDS011;7270;49.004;12.066;2023-05-10T04:44:51;1.20;;;1.20;;
14373;SDS011;7270;49.004;12.066;2023-05-10T04:47:18;1.30;;;1.20;;
14373;SDS011;7270;49.004;12.066;2023-05-10T04:49:44;1.40;;;1.30;;
14373;SDS011;7270;49.004;12.066;2023-05-10T04:52:10;1.30;;;1.20;;
14373;SDS011;7270;49.004;12.066;2023-05-10T04:54:37;1.33;;;1.27;;
14373;SDS011;7270;49.004;12.066;2023-05-10T04:57:05;1.37;;;1.30;;
14373;SDS011;7270;49.004;12.066;2023-05-10T04:59:31;1.30;;;1.30;;
14373;SDS011;7270;49.004;12.066;2023-05-10T05:01:57;1.30;;;1.30;;
14373;SDS011;7270;49.004;12.066;2023-05-10T05:04:23;1.40;;;1.30;;
14373;SDS011;7270;49.004;12.066;2023-05-10T05:06:50;1.40;;;1.30;;
14373;SDS011;7270;49.004;12.066;2023-05-10T05:09:16;1.50;;;1.40;;
14373;SDS011;7270;49.004;12.066;2023-05-10T05:11:42;1.50;;;1.40;;
14373;SDS011;7270;49.004;12.066;2023-05-10T05:14:10;1.37;;;1.30;;
14373;SDS011;7270;49.004;12.066;2023-05-10T05:16:36;1.50;;;1.40;;
14373;SDS011;7270;49.004;12.066;2023-05-10T05:19:03;1.73;;;1.63;;
14373;SDS011;7270;49.004;12.066;2023-05-10T05:21:29;2.00;;;1.90;;
14373;SDS011;7270;49.004;12.066;2023-05-10T05:23:57;2.00;;;1.90;;
14373;SDS011;7270;49.004;12.066;2023-05-10T05:26:23;1.70;;;1.60;;
14373;SDS011;7270;49.004;12.066;2023-05-10T05:28:49;1.40;;;1.30;;
14373;SDS011;7270;49.004;12.066;2023-05-10T05:31:20;1.40;;;1.30;;
14373;SDS011;7270;49.004;12.066;2023-05-10T05:33:46;1.40;;;1.30;;
14373;SDS011;7270;49.004;12.066;2023-05-10T05:36:12;1.30;;;1.30;;
14373;SDS011;7270;49.004;12.066;2023-05-10T05:38:39;1.20;;;1.20;;
14373;SDS011;7270;49.004;12.066;2023-05-10T05:41:05;1.40;;;1.30;;
14373;SDS011;7270;49.004;12.066;2023-05-10T05:43:32;1.40;;;1.30;;
14373;SDS011;7270;49.004;12.066;2023-05-10T05:45:58;1.30;;;1.20;;
14373;SDS011;7270;49.004;12.066;2023-05-10T05:48:26;1.40;;;1.30;;
14373;SDS011;7270;49.004;12.066;2023-05-10T05:50:54;1.30;;;1.20;;
14373;SDS011;7270;49.004;12.066;2023-05-10T05:53:20;1.40;;;1.30;;
14373;SDS011;7270;49.004;12.066;2023-05-10T05:55:53;1.50;;;1.40;;
14373;SDS011;7270;49.004;12.066;2023-05-10T05:58:20;1.20;;;1.20;;
14373;SDS011;7270;49.004;12.066;2023-05-10T06:00:46;1.30;;;1.20;;
14373;SDS011;7270;49.004;12.066;2023-05-10T06:03:12;1.50;;;1.40;;
14373;SDS011;7270;49.004;12.066;2023-05-10T06:05:40;1.40;;;1.30;;
14373;SDS011;7270;49.004;12.066;2023-05-10T06:08:06;1.50;;;1.40;;
14373;SDS011;7270;49.004;12.066;2023-05-10T06:10:33;1.40;;;1.30;;
14373;SDS011;7270;49.004;12.066;2023-05-10T06:12:59;1.50;;;1.40;;
14373;SDS011;7270;49.004;12.066;2023-05-10T06:15:25;1.30;;;1.27;;
14373;SDS011;7270;49.004;12.066;2023-05-10T06:17:52;1.57;;;1.47;;
14373;SDS011;7270;49.004;12.066;2023-05-10T06:20:18;1.70;;;1.60;;
14373;SDS011;7270;49.004;12.066;2023-05-10T06:22:46;1.50;;;1.40;;
14373;SDS011;7270;49.004;12.066;2023-05-10T06:25:12;1.50;;;1.40;;
14373;SDS011;7270;49.004;12.066;2023-05-10T06:27:39;1.60;;;1.50;;
14373;SDS011;7270;49.004;12.066;2023-05-10T06:30:06;1.53;;;1.43;;
14373;SDS011;7270;49.004;12.066;2023-05-10T06:32:33;1.50;;;1.40;;
14373;SDS011;7270;49.004;12.066;2023-05-10T06:34:59;1.40;;;1.30;;
14373;SDS011;7270;49.004;12.066;2023-05-10T06:37:25;1.60;;;1.50;;
14373;SDS011;7270;49.004;12.066;2023-05-10T06:39:53;1.40;;;1.30;;
14373;SDS011;7270;49.004;12.066;2023-05-10T06:42:20;1.40;;;1.30;;
14373;SDS011;7270;49.004;12.066;2023-05-10T06:44:46;1.43;;;1.33;;
14373;SDS011;7270;49.004;12.066;2023-05-10T06:47:12;1.50;;;1.40;;
14373;SDS011;7270;49.004;12.066;2023-05-10T06:49:39;1.70;;;1.60;;
14373;SDS011;7270;49.004;12.066;2023-05-10T06:52:05;1.70;;;1.60;;
14373;SDS011;7270;49.004;12.066;2023-05-10T06:54:31;1.70;;;1.60;;
14373;SDS011;7270;49.004;12.066;2023-05-10T06:56:59;1.60;;;1.50;;
14373;SDS011;7270;49.004;12.066;2023-05-10T06:59:25;1.50;;;1.40;;
14373;SDS011;7270;49.004;12.066;2023-05-10T07:01:52;1.60;;;1.50;;
14373;SDS011;7270;49.004;12.066;2023-05-10T07:04:18;1.20;;;1.20;;
14373;SDS011;7270;49.004;12.066;2023-05-10T07:06:45;1.40;;;1.30;;
14373;SDS011;7270;49.004;12.066;2023-05-10T07:09:11;1.20;;;1.20;;
14373;SDS011;7270;49.004;12.066;2023-05-10T07:11:38;1.50;;;1.40;;
14373;SDS011;7270;49.004;12.066;2023-05-10T07:14:06;1.20;;;1.20;;
14373;SDS011;7270;49.004;12.066;2023-05-10T07:16:32;1.37;;;1.30;;
14373;SDS011;7270;49.004;12.066;2023-05-10T07:18:59;1.40;;;1.30;;
14373;SDS011;7270;49.004;12.066;2023-05-10T07:21:25;1.40;;;1.30;;
14373;SDS011;7270;49.004;12.066;2023-05-10T07:23:53;1.20;;;1.20;;
14373;SDS011;7270;49.004;12.066;2023-05-10T07:26:19;1.20;;;1.20;;
14373;SDS011;7270;49.004;12.066;2023-05-10T07:28:47;1.40;;;1.30;;
14373;SDS011;7270;49.004;12.066;2023-05-10T07:31:15;1.27;;;1.20;;
14373;SDS011;7270;49.004;12.066;2023-05-10T07:33:41;1.00;;;1.00;;
14373;SDS011;7270;49.004;12.066;2023-05-10T07:36:07;1.10;;;1.10;;
14373;SDS011;7270;49.004;12.066;2023-05-10T07:38:34;1.10;;;1.10;;
14373;SDS011;7270;49.004;12.066;2023-05-10T07:41:00;1.10;;;1.10;;
14373;SDS011;7270;49.004;12.066;2023-05-10T07:43:26;1.00;;;1.00;;
14373;SDS011;7270;49.004;12.066;2023-05-10T07:45:53;1.00;;;1.00;;
14373;SDS011;7270;49.004;12.066;2023-05-10T07:48:20;1.00;;;1.00;;
14373;SDS011;7270;49.004;12.066;2023-05-10T07:50:47;1.00;;;1.00;;
14373;SDS011;7270;49.004;12.066;2023-05-10T07:53:13;1.00;;;1.00;;
14373;SDS011;7270;49.004;12.066;2023-05-10T07:55:39;1.00;;;1.00;;
14373;SDS011;7270;49.004;12.066;2023-05-10T07:58:06;1.00;;;1.00;;
14373;SDS011;7270;49.004;12.066;2023-05-10T08:00:32;1.00;;;1.00;;
14373;SDS011;7270;49.004;12.066;2023-05-10T08:02:59;1.00;;;1.00;;
14373;SDS011;7270;49.004;12.066;2023-05-10T08:05:26;1.10;;;1.10;;
14373;SDS011;7270;49.004;12.066;2023-05-10T08:07:53;1.10;;;1.10;;
14373;SDS011;7270;49.004;12.066;2023-05-10T08:10:19;1.03;;;1.03;;
14373;SDS011;7270;49.004;12.066;2023-05-10T08:12:45;1.00;;;1.00;;
14373;SDS011;7270;49.004;12.066;2023-05-10T08:15:11;1.00;;;1.00;;
14373;SDS011;7270;49.004;12.066;2023-05-10T08:17:38;1.00;;;1.00;;
14373;SDS011;7270;49.004;12.066;2023-05-10T08:20:05;1.10;;;1.10;;
14373;SDS011;7270;49.004;12.066;2023-05-10T08:22:33;1.10;;;1.10;;
14373;SDS011;7270;49.004;12.066;2023-05-10T08:25:00;1.10;;;1.10;;
14373;SDS011;7270;49.004;12.066;2023-05-10T08:27:26;1.00;;;1.00;;
14373;SDS011;7270;49.004;12.066;2023-05-10T08:29:52;1.10;;;1.10;;
14373;SDS011;7270;49.004;12.066;2023-05-10T08:32:19;1.00;;;1.00;;
14373;SDS011;7270;49.004;12.066;2023-05-10T08:34:45;1.00;;;1.00;;
14373;SDS011;7270;49.004;12.066;2023-05-10T08:37:11;1.00;;;1.00;;
14373;SDS011;7270;49.004;12.066;2023-05-10T08:39:39;0.90;;;0.90;;
14373;SDS011;7270;49.004;12.066;2023-05-10T08:42:05;1.00;;;1.00;;
14373;SDS011;7270;49.004;12.066;2023-05-10T08:44:34;1.00;;;1.00;;
14373;SDS011;7270;49.004;12.066;2023-05-10T08:47:02;1.10;;;1.10;;
14373;SDS011;7270;49.004;12.066;2023-05-10T08:49:30;1.03;;;1.03;;
14373;SDS011;7270;49.004;12.066;2023-05-10T08:51:57;1.13;;;1.13;;
14373;SDS011;7270;49.004;12.066;2023-05-10T08:54:23;1.10;;;1.10;;
14373;SDS011;7270;49.004;12.066;2023-05-10T08:56:51;1.00;;;1.00;;
14373;SDS011;7270;49.004;12.066;2023-05-10T08:59:18;1.10;;;1.10;;
14373;SDS011;7270;49.004;12.066;2023-05-10T09:01:44;1.10;;;1.10;;
14373;SDS011;7270;49.004;12.066;2023-05-10T09:04:12;1.00;;;1.00;;
14373;SDS011;7270;49.004;12.066;2023-05-10T09:06:38;1.00;;;1.00;;
14373;SDS011;7270;49.004;12.066;2023-05-10T09:09:04;1.10;;;1.10;;
14373;SDS011;7270;49.004;12.066;2023-05-10T09:11:31;1.10;;;1.10;;
14373;SDS011;7270;49.004;12.066;2023-05-10T09:13:59;1.00;;;1.00;;
14373;SDS011;7270;49.004;12.066;2023-05-10T09:16:25;1.20;;;1.20;;
14373;SDS011;7270;49.004;12.066;2023-05-10T09:18:52;1.00;;;1.00;;
14373;SDS011;7270;49.004;12.066;2023-05-10T09:21:19;1.20;;;1.20;;
14373;SDS011;7270;49.004;12.066;2023-05-10T09:23:45;1.10;;;1.10;;
14373;SDS011;7270;49.004;12.066;2023-05-10T09:26:12;1.10;;;1.10;;
14373;SDS011;7270;49.004;12.066;2023-05-10T09:28:50;1.00;;;1.00;;
14373;SDS011;7270;49.004;12.066;2023-05-10T09:31:17;1.10;;;1.10;;
14373;SDS011;7270;49.004;12.066;2023-05-10T09:33:44;1.00;;;1.00;;
14373;SDS011;7270;49.004;12.066;2023-05-10T09:36:11;1.03;;;1.03;;
14373;SDS011;7270;49.004;12.066;2023-05-10T09:38:44;1.10;;;1.10;;
14373;SDS011;7270;49.004;12.066;2023-05-10T09:41:15;1.10;;;1.10;;
14373;SDS011;7270;49.004;12.066;2023-05-10T09:43:42;1.20;;;1.20;;
14373;SDS011;7270;49.004;12.066;2023-05-10T09:46:08;1.10;;;1.10;;
14373;SDS011;7270;49.004;12.066;2023-05-10T09:48:36;1.20;;;1.20;;
14373;SDS011;7270;49.004;12.066;2023-05-10T09:51:06;1.10;;;1.10;;
14373;SDS011;7270;49.004;12.066;2023-05-10T09:53:32;1.10;;;1.10;;
14373;SDS011;7270;49.004;12.066;2023-05-10T09:55:59;1.20;;;1.20;;
14373;SDS011;7270;49.004;12.066;2023-05-10T09:58:25;1.10;;;1.10;;
14373;SDS011;7270;49.004;12.066;2023-05-10T10:00:51;1.10;;;1.10;;
14373;SDS011;7270;49.004;12.066;2023-05-10T10:03:19;1.10;;;1.10;;
14373;SDS011;7270;49.004;12.066;2023-05-10T10:05:48;1.20;;;1.20;;
14373;SDS011;7270;49.004;12.066;2023-05-10T10:08:14;1.30;;;1.20;;
14373;SDS011;7270;49.004;12.066;2023-05-10T10:10:41;1.10;;;1.10;;
14373;SDS011;7270;49.004;12.066;2023-05-10T10:13:09;1.10;;;1.10;;
14373;SDS011;7270;49.004;12.066;2023-05-10T10:15:35;1.10;;;1.10;;
14373;SDS011;7270;49.004;12.066;2023-05-10T10:18:02;1.20;;;1.20;;
14373;SDS011;7270;49.004;12.066;2023-05-10T10:20:29;1.10;;;1.10;;
14373;SDS011;7270;49.004;12.066;2023-05-10T10:22:57;1.10;;;1.10;;
14373;SDS011;7270;49.004;12.066;2023-05-10T10:25:23;1.00;;;1.00;;
14373;SDS011;7270;49.004;12.066;2023-05-10T10:27:56;1.00;;;1.00;;
14373;SDS011;7270;49.004;12.066;2023-05-10T10:30:27;1.00;;;1.00;;
14373;SDS011;7270;49.004;12.066;2023-05-10T10:33:06;1.00;;;1.00;;
14373;SDS011;7270;49.004;12.066;2023-05-10T10:35:36;1.10;;;1.10;;
14373;SDS011;7270;49.004;12.066;2023-05-10T10:38:04;1.10;;;1.10;;
14373;SDS011;7270;49.004;12.066;2023-05-10T10:40:33;1.13;;;1.13;;
14373;SDS011;7270;49.004;12.066;2023-05-10T10:45:41;1.10;;;1.10;;
14373;SDS011;7270;49.004;12.066;2023-05-10T10:48:20;1.10;;;1.10;;
14373;SDS011;7270;49.004;12.066;2023-05-10T10:50:47;1.40;;;1.30;;
14373;SDS011;7270;49.004;12.066;2023-05-10T10:53:16;1.30;;;1.20;;
14373;SDS011;7270;49.004;12.066;2023-05-10T10:55:46;1.23;;;1.20;;
14373;SDS011;7270;49.004;12.066;2023-05-10T10:58:28;1.23;;;1.20;;
14373;SDS011;7270;49.004;12.066;2023-05-10T11:01:06;1.10;;;1.10;;
14373;SDS011;7270;49.004;12.066;2023-05-10T11:03:34;1.10;;;1.10;;
14373;SDS011;7270;49.004;12.066;2023-05-10T11:06:01;1.33;;;1.30;;
14373;SDS011;7270;49.004;12.066;2023-05-10T11:08:30;1.10;;;1.10;;
14373;SDS011;7270;49.004;12.066;2023-05-10T11:11:04;1.10;;;1.10;;
14373;SDS011;7270;49.004;12.066;2023-05-10T11:13:32;1.17;;;1.17;;
14373;SDS011;7270;49.004;12.066;2023-05-10T11:15:59;1.10;;;1.10;;
14373;SDS011;7270;49.004;12.066;2023-05-10T11:18:36;1.10;;;1.10;;
14373;SDS011;7270;49.004;12.066;2023-05-10T11:21:02;1.30;;;1.20;;
14373;SDS011;7270;49.004;12.066;2023-05-10T11:23:32;1.20;;;1.20;;
14373;SDS011;7270;49.004;12.066;2023-05-10T11:25:58;1.10;;;1.10;;
14373;SDS011;7270;49.004;12.066;2023-05-10T11:28:25;1.10;;;1.10;;
14373;SDS011;7270;49.004;12.066;2023-05-10T11:30:52;1.10;;;1.10;;
14373;SDS011;7270;49.004;12.066;2023-05-10T11:33:19;1.20;;;1.20;;
14373;SDS011;7270;49.004;12.066;2023-05-10T11:35:45;1.10;;;1.10;;
14373;SDS011;7270;49.004;12.066;2023-05-10T11:38:12;1.10;;;1.10;;
14373;SDS011;7270;49.004;12.066;2023-05-10T11:40:41;1.20;;;1.20;;
14373;SDS011;7270;49.004;12.066;2023-05-10T11:43:08;1.10;;;1.10;;
14373;SDS011;7270;49.004;12.066;2023-05-10T11:45:34;1.30;;;1.20;;
14373;SDS011;7270;49.004;12.066;2023-05-10T11:48:01;1.20;;;1.20;;
14373;SDS011;7270;49.004;12.066;2023-05-10T11:50:28;1.00;;;1.00;;
14373;SDS011;7270;49.004;12.066;2023-05-10T11:52:55;1.20;;;1.20;;
14373;SDS011;7270;49.004;12.066;2023-05-10T11:55:21;1.20;;;1.20;;
14373;SDS011;7270;49.004;12.066;2023-05-10T11:57:52;1.07;;;1.07;;
14373;SDS011;7270;49.004;12.066;2023-05-10T12:00:19;1.10;;;1.10;;
14373;SDS011;7270;49.004;12.066;2023-05-10T12:02:45;1.27;;;1.20;;
14373;SDS011;7270;49.004;12.066;2023-05-10T12:05:12;1.20;;;1.20;;
14373;SDS011;7270;49.004;12.066;2023-05-10T12:07:39;1.10;;;1.10;;
14373;SDS011;7270;49.004;12.066;2023-05-10T12:10:06;1.10;;;1.10;;
14373;SDS011;7270;49.004;12.066;2023-05-10T12:12:36;1.10;;;1.10;;
14373;SDS011;7270;49.004;12.066;2023-05-10T12:15:06;1.20;;;1.20;;
14373;SDS011;7270;49.004;12.066;2023-05-10T12:17:37;1.20;;;1.20;;
14373;SDS011;7270;49.004;12.066;2023-05-10T12:20:12;1.10;;;1.10;;
14373;SDS011;7270;49.004;12.066;2023-05-10T12:22:39;1.20;;;1.20;;
14373;SDS011;7270;49.004;12.066;2023-05-10T12:25:06;1.10;;;1.10;;
14373;SDS011;7270;49.004;12.066;2023-05-10T12:27:34;1.20;;;1.20;;
14373;SDS011;7270;49.004;12.066;2023-05-10T12:30:01;1.10;;;1.10;;
14373;SDS011;7270;49.004;12.066;2023-05-10T12:32:38;1.20;;;1.20;;
14373;SDS011;7270;49.004;12.066;2023-05-10T12:35:07;1.20;;;1.20;;
14373;SDS011;7270;49.004;12.066;2023-05-10T12:37:34;1.20;;;1.20;;
14373;SDS011;7270;49.004;12.066;2023-05-10T12:40:08;1.10;;;1.10;;
14373;SDS011;7270;49.004;12.066;2023-05-10T12:42:35;1.10;;;1.10;;
14373;SDS011;7270;49.004;12.066;2023-05-10T12:45:02;1.20;;;1.20;;
14373;SDS011;7270;49.004;12.066;2023-05-10T12:47:30;1.20;;;1.20;;
14373;SDS011;7270;49.004;12.066;2023-05-10T12:49:59;1.10;;;1.10;;
14373;SDS011;7270;49.004;12.066;2023-05-10T12:52:29;1.00;;;1.00;;
14373;SDS011;7270;49.004;12.066;2023-05-10T12:54:59;1.10;;;1.10;;
14373;SDS011;7270;49.004;12.066;2023-05-10T12:57:25;1.10;;;1.10;;
14373;SDS011;7270;49.004;12.066;2023-05-10T12:59:52;1.00;;;1.00;;
14373;SDS011;7270;49.004;12.066;2023-05-10T13:02:18;1.10;;;1.10;;
14373;SDS011;7270;49.004;12.066;2023-05-10T13:04:46;1.50;;;1.40;;
14373;SDS011;7270;49.004;12.066;2023-05-10T13:07:13;1.60;;;1.50;;
14373;SDS011;7270;49.004;12.066;2023-05-10T13:09:40;1.60;;;1.50;;
14373;SDS011;7270;49.004;12.066;2023-05-10T13:12:06;1.43;;;1.33;;
14373;SDS011;7270;49.004;12.066;2023-05-10T13:14:32;1.40;;;1.30;;
14373;SDS011;7270;49.004;12.066;2023-05-10T13:16:59;1.50;;;1.40;;
14373;SDS011;7270;49.004;12.066;2023-05-10T13:19:25;1.50;;;1.40;;
14373;SDS011;7270;49.004;12.066;2023-05-10T13:21:51;1.30;;;1.20;;
14373;SDS011;7270;49.004;12.066;2023-05-10T13:24:19;1.40;;;1.30;;
14373;SDS011;7270;49.004;12.066;2023-05-10T13:26:46;1.40;;;1.30;;
14373;SDS011;7270;49.004;12.066;2023-05-10T13:29:13;1.17;;;1.17;;
14373;SDS011;7270;49.004;12.066;2023-05-10T13:31:42;1.40;;;1.30;;
14373;SDS011;7270;49.004;12.066;2023-05-10T13:34:08;1.20;;;1.20;;
14373;SDS011;7270;49.004;12.066;2023-05-10T13:36:35;1.20;;;1.20;;
14373;SDS011;7270;49.004;12.066;2023-05-10T13:39:01;1.30;;;1.20;;
14373;SDS011;7270;49.004;12.066;2023-05-10T13:41:29;1.40;;;1.30;;
14373;SDS011;7270;49.004;12.066;2023-05-10T13:43:56;1.30;;;1.20;;
14373;SDS011;7270;49.004;12.066;2023-05-10T13:46:22;1.20;;;1.20;;
14373;SDS011;7270;49.004;12.066;2023-05-10T13:48:49;1.20;;;1.20;;
14373;SDS011;7270;49.004;12.066;2023-05-10T13:51:15;1.30;;;1.20;;
14373;SDS011;7270;49.004;12.066;2023-05-10T13:53:41;1.20;;;1.20;;
14373;SDS011;7270;49.004;12.066;2023-05-10T13:56:11;1.30;;;1.20;;
14373;SDS011;7270;49.004;12.066;2023-05-10T13:58:38;1.23;;;1.20;;
14373;SDS011;7270;49.004;12.066;2023-05-10T14:01:05;1.30;;;1.20;;
14373;SDS011;7270;49.004;12.066;2023-05-10T14:03:31;1.20;;;1.20;;
14373;SDS011;7270;49.004;12.066;2023-05-10T14:05:57;1.20;;;1.20;;
14373;SDS011;7270;49.004;12.066;2023-05-10T14:08:24;1.10;;;1.10;;
14373;SDS011;7270;49.004;12.066;2023-05-10T14:10:52;1.30;;;1.20;;
14373;SDS011;7270;49.004;12.066;2023-05-10T14:13:18;1.17;;;1.17;;
14373;SDS011;7270;49.004;12.066;2023-05-10T14:15:46;1.27;;;1.20;;
14373;SDS011;7270;49.004;12.066;2023-05-10T14:18:12;1.20;;;1.20;;
14373;SDS011;7270;49.004;12.066;2023-05-10T14:20:38;1.20;;;1.20;;
14373;SDS011;7270;49.004;12.066;2023-05-10T14:23:04;1.30;;;1.20;;
14373;SDS011;7270;49.004;12.066;2023-05-10T14:25:31;1.30;;;1.20;;
14373;SDS011;7270;49.004;12.066;2023-05-10T14:27:58;1.10;;;1.10;;
14373;SDS011;7270;49.004;12.066;2023-05-10T14:30:24;1.20;;;1.20;;
14373;SDS011;7270;49.004;12.066;2023-05-10T14:32:52;1.13;;;1.10;;
14373;SDS011;7270;49.004;12.066;2023-05-10T14:35:19;1.30;;;1.20;;
14373;SDS011;7270;49.004;12.066;2023-05-10T14:37:45;1.20;;;1.20;;
14373;SDS011;7270;49.004;12.066;2023-05-10T14:40:12;1.30;;;1.20;;
14373;SDS011;7270;49.004;12.066;2023-05-10T14:42:39;1.20;;;1.20;;
14373;SDS011;7270;49.004;12.066;2023-05-10T14:45:05;1.10;;;1.10;;
14373;SDS011;7270;49.004;12.066;2023-05-10T14:47:33;1.23;;;1.20;;
14373;SDS011;7270;49.004;12.066;2023-05-10T14:50:01;1.20;;;1.20;;
14373;SDS011;7270;49.004;12.066;2023-05-10T14:52:27;1.20;;;1.20;;
14373;SDS011;7270;49.004;12.066;2023-05-10T14:54:53;1.13;;;1.13;;